TRA9M EHEH-LEMG
Flight info
| Callsign | TRA9M |
|---|---|
| Flight time | N/A |
| Altitude | 35000 |
| Route | WOODY N872 MEDIL DCT KOVIN DCT DUCRA DCT RESMI DCT DEKOD DCT DISAK DCT ARKIP DCT ARNAV DCT LMG DCT UVELI DCT OSMOB/N0455F370 DCT ARVID DCT PPN DCT NOLSA DCT ALEPO DCT VASUM DCT BANEV DCT BAN DCT GOTOR DCT KAMPO DCT MONTO DCT CRISA DCT VULPE |
| Aircraft | B738/M-SDE2E3FGHIJ1RWXYZ/LB1 |
Departure
| Time | 2026-05-05 13:21 |
|---|---|
| Airport | Eindhoven Airport (EHEH) |
Arrival
| Time | N/A |
|---|---|
| Airport | Málaga-Costa del Sol Airport (LEMG) |
| Time | Latitude | Longitude | Altitude | Speed | Heading |
|---|---|---|---|---|---|
| 2026-05-05 12:41 | 51.45789 | 5.38973 | 74 ft | 0 kts | 125° |
| 2026-05-05 12:45 | 51.45786 | 5.38978 | 74 ft | 0 kts | 125° |
| 2026-05-05 13:10 | 51.45788 | 5.38974 | 74 ft | 3 kts | 125° |
| 2026-05-05 13:10 | 51.45804 | 5.38939 | 61 ft | 4 kts | 125° |
| 2026-05-05 13:10 | 51.45819 | 5.38905 | 63 ft | 4 kts | 146° |
| 2026-05-05 13:10 | 51.45842 | 5.38896 | 64 ft | 4 kts | 197° |
| 2026-05-05 13:11 | 51.45857 | 5.38907 | 66 ft | 0 kts | 215° |
| 2026-05-05 13:12 | 51.45854 | 5.38904 | 66 ft | 3 kts | 215° |
| 2026-05-05 13:13 | 51.45813 | 5.38857 | 68 ft | 7 kts | 215° |
| 2026-05-05 13:13 | 51.45790 | 5.38786 | 71 ft | 9 kts | 281° |
| 2026-05-05 13:13 | 51.45814 | 5.38726 | 74 ft | 4 kts | 305° |
| 2026-05-05 13:13 | 51.45823 | 5.38707 | 74 ft | 0 kts | 306° |
| 2026-05-05 13:14 | 51.45828 | 5.38696 | 70 ft | 6 kts | 306° |
| 2026-05-05 13:15 | 51.45878 | 5.38586 | 75 ft | 16 kts | 306° |
| 2026-05-05 13:15 | 51.45940 | 5.38445 | 76 ft | 15 kts | 306° |
| 2026-05-05 13:15 | 51.45986 | 5.38343 | 64 ft | 6 kts | 306° |
| 2026-05-05 13:15 | 51.45996 | 5.38282 | 67 ft | 7 kts | 245° |
| 2026-05-05 13:16 | 51.45918 | 5.38186 | 74 ft | 19 kts | 214° |
| 2026-05-05 13:16 | 51.45810 | 5.38066 | 71 ft | 19 kts | 215° |
| 2026-05-05 13:16 | 51.45705 | 5.37946 | 74 ft | 20 kts | 215° |
| 2026-05-05 13:16 | 51.45569 | 5.37794 | 74 ft | 28 kts | 215° |
| 2026-05-05 13:17 | 51.45405 | 5.37609 | 67 ft | 29 kts | 215° |
| 2026-05-05 13:17 | 51.45247 | 5.37431 | 67 ft | 27 kts | 215° |
| 2026-05-05 13:17 | 51.45100 | 5.37269 | 68 ft | 25 kts | 215° |
| 2026-05-05 13:17 | 51.44961 | 5.37114 | 68 ft | 24 kts | 214° |
| 2026-05-05 13:18 | 51.44831 | 5.36967 | 65 ft | 23 kts | 215° |
| 2026-05-05 13:18 | 51.44704 | 5.36824 | 71 ft | 22 kts | 215° |
| 2026-05-05 13:18 | 51.44576 | 5.36681 | 70 ft | 24 kts | 214° |
| 2026-05-05 13:18 | 51.44428 | 5.36517 | 69 ft | 27 kts | 215° |
| 2026-05-05 13:19 | 51.44277 | 5.36348 | 68 ft | 22 kts | 215° |
| 2026-05-05 13:19 | 51.44172 | 5.36276 | 74 ft | 12 kts | 145° |
| 2026-05-05 13:19 | 51.44120 | 5.36376 | 72 ft | 10 kts | 127° |
| 2026-05-05 13:19 | 51.44104 | 5.36440 | 69 ft | 3 kts | 32° |
| 2026-05-05 13:20 | 51.44121 | 5.36454 | 71 ft | 3 kts | 29° |
| 2026-05-05 13:20 | 51.44127 | 5.36461 | 74 ft | 0 kts | 36° |
| 2026-05-05 13:21 | 51.44195 | 5.36537 | 66 ft | 39 kts | 34° |
| 2026-05-05 13:21 | 51.44617 | 5.37009 | 66 ft | 106 kts | 35° |
| 2026-05-05 13:21 | 51.45382 | 5.37868 | 108 ft | 157 kts | 34° |
| 2026-05-05 13:21 | 51.46300 | 5.38886 | 707 ft | 165 kts | 34° |
| 2026-05-05 13:22 | 51.47198 | 5.39890 | 1739 ft | 152 kts | 34° |
| 2026-05-05 13:22 | 51.47957 | 5.40739 | 2264 ft | 158 kts | 36° |
| 2026-05-05 13:22 | 51.48780 | 5.41665 | 2815 ft | 163 kts | 36° |
| 2026-05-05 13:23 | 51.49711 | 5.42711 | 3444 ft | 169 kts | 36° |
| 2026-05-05 13:23 | 51.50778 | 5.43828 | 3664 ft | 195 kts | 25° |
| 2026-05-05 13:23 | 51.52187 | 5.43983 | 3894 ft | 218 kts | 345° |
| 2026-05-05 13:23 | 51.53455 | 5.42558 | 4370 ft | 233 kts | 310° |
| 2026-05-05 13:24 | 51.54059 | 5.40117 | 5043 ft | 242 kts | 275° |
| 2026-05-05 13:24 | 51.53757 | 5.37464 | 5690 ft | 244 kts | 246° |
| 2026-05-05 13:24 | 51.52973 | 5.35077 | 6312 ft | 241 kts | 240° |
| 2026-05-05 13:24 | 51.52051 | 5.32764 | 6723 ft | 257 kts | 233° |
| 2026-05-05 13:25 | 51.50912 | 5.30392 | 7009 ft | 277 kts | 231° |
| 2026-05-05 13:25 | 51.49695 | 5.27950 | 7636 ft | 282 kts | 231° |
| 2026-05-05 13:25 | 51.48465 | 5.25482 | 8373 ft | 284 kts | 231° |
| 2026-05-05 13:25 | 51.47224 | 5.22979 | 9041 ft | 289 kts | 231° |
| 2026-05-05 13:26 | 51.45975 | 5.20438 | 9806 ft | 291 kts | 231° |
| 2026-05-05 13:26 | 51.44708 | 5.17850 | 10301 ft | 302 kts | 232° |
| 2026-05-05 13:26 | 51.43364 | 5.15096 | 10442 ft | 325 kts | 232° |
| 2026-05-05 13:26 | 51.41934 | 5.12156 | 10594 ft | 346 kts | 232° |
| 2026-05-05 13:27 | 51.40422 | 5.09046 | 10896 ft | 360 kts | 232° |
| 2026-05-05 13:27 | 51.38885 | 5.05881 | 11605 ft | 360 kts | 232° |
| 2026-05-05 13:27 | 51.37341 | 5.02702 | 12263 ft | 365 kts | 231° |
| 2026-05-05 13:27 | 51.35793 | 4.99518 | 12873 ft | 370 kts | 231° |
| 2026-05-05 13:28 | 51.34201 | 4.96247 | 13494 ft | 375 kts | 231° |
| 2026-05-05 13:28 | 51.32584 | 4.92925 | 14088 ft | 380 kts | 231° |
| 2026-05-05 13:28 | 51.30956 | 4.89587 | 14762 ft | 382 kts | 231° |
| 2026-05-05 13:28 | 51.29321 | 4.86239 | 15519 ft | 382 kts | 231° |
| 2026-05-05 13:29 | 51.27684 | 4.82890 | 16231 ft | 384 kts | 231° |
| 2026-05-05 13:29 | 51.26037 | 4.79527 | 16898 ft | 386 kts | 231° |
| 2026-05-05 13:29 | 51.24375 | 4.76136 | 17573 ft | 388 kts | 230° |
| 2026-05-05 13:29 | 51.22705 | 4.72736 | 18237 ft | 391 kts | 230° |
| 2026-05-05 13:30 | 51.21021 | 4.69311 | 18799 ft | 393 kts | 230° |
| 2026-05-05 13:30 | 51.19329 | 4.65876 | 19395 ft | 394 kts | 230° |
| 2026-05-05 13:30 | 51.17633 | 4.62431 | 19982 ft | 396 kts | 230° |
| 2026-05-05 13:30 | 51.15928 | 4.58971 | 20526 ft | 398 kts | 230° |
| 2026-05-05 13:31 | 51.14211 | 4.55495 | 21052 ft | 401 kts | 230° |
| 2026-05-05 13:31 | 51.12482 | 4.51998 | 21607 ft | 403 kts | 230° |
| 2026-05-05 13:31 | 51.10742 | 4.48487 | 22120 ft | 405 kts | 230° |
| 2026-05-05 13:31 | 51.08987 | 4.44949 | 22612 ft | 408 kts | 230° |
| 2026-05-05 13:32 | 51.07220 | 4.41391 | 23116 ft | 411 kts | 230° |
| 2026-05-05 13:32 | 51.05441 | 4.37814 | 23601 ft | 413 kts | 230° |
| 2026-05-05 13:32 | 51.03653 | 4.34223 | 24051 ft | 415 kts | 230° |
| 2026-05-05 13:32 | 51.01883 | 4.30674 | 24469 ft | 416 kts | 230° |
| 2026-05-05 13:33 | 51.00083 | 4.27071 | 24891 ft | 418 kts | 230° |
| 2026-05-05 13:33 | 50.98274 | 4.23453 | 25291 ft | 419 kts | 230° |
| 2026-05-05 13:33 | 50.96453 | 4.19816 | 25674 ft | 421 kts | 230° |
| 2026-05-05 13:33 | 50.94623 | 4.16166 | 26060 ft | 423 kts | 229° |
| 2026-05-05 13:34 | 50.92789 | 4.12512 | 26440 ft | 425 kts | 229° |
| 2026-05-05 13:34 | 50.90942 | 4.08841 | 26806 ft | 426 kts | 229° |
| 2026-05-05 13:34 | 50.88942 | 4.05376 | 27152 ft | 426 kts | 220° |
| 2026-05-05 13:34 | 50.86606 | 4.02506 | 27502 ft | 425 kts | 212° |
| 2026-05-05 13:35 | 50.84036 | 4.00194 | 27863 ft | 425 kts | 203° |
| 2026-05-05 13:35 | 50.81299 | 3.98414 | 28212 ft | 426 kts | 200° |
| 2026-05-05 13:35 | 50.78530 | 3.96688 | 28435 ft | 430 kts | 200° |
| 2026-05-05 13:35 | 50.75737 | 3.94951 | 28676 ft | 433 kts | 200° |
| 2026-05-05 13:36 | 50.72925 | 3.93187 | 29056 ft | 433 kts | 200° |
| 2026-05-05 13:36 | 50.70143 | 3.91424 | 29592 ft | 429 kts | 200° |
| 2026-05-05 13:36 | 50.67421 | 3.89689 | 30128 ft | 425 kts | 200° |
| 2026-05-05 13:36 | 50.64683 | 3.87940 | 30543 ft | 423 kts | 200° |
| 2026-05-05 13:37 | 50.61956 | 3.86200 | 30888 ft | 423 kts | 200° |
| 2026-05-05 13:37 | 50.59236 | 3.84469 | 31229 ft | 422 kts | 200° |
| 2026-05-05 13:37 | 50.56519 | 3.82732 | 31555 ft | 422 kts | 201° |